sensor_id;sensor_type;location;lat;lon;timestamp;temperature;humidity
13892;DHT22;7016;48.172;8.058;2023-07-29T00:00:19;18.00;99.90
13892;DHT22;7016;48.172;8.058;2023-07-29T00:03:05;18.00;99.90
13892;DHT22;7016;48.172;8.058;2023-07-29T00:05:53;18.00;99.90
13892;DHT22;7016;48.172;8.058;2023-07-29T00:08:39;18.00;99.90
13892;DHT22;7016;48.172;8.058;2023-07-29T00:11:25;18.00;99.90
13892;DHT22;7016;48.172;8.058;2023-07-29T00:14:11;18.00;99.90
13892;DHT22;7016;48.172;8.058;2023-07-29T00:16:58;18.00;99.90
13892;DHT22;7016;48.172;8.058;2023-07-29T00:19:44;18.00;99.90
13892;DHT22;7016;48.172;8.058;2023-07-29T00:22:31;17.80;99.90
13892;DHT22;7016;48.172;8.058;2023-07-29T00:25:18;17.70;99.90
13892;DHT22;7016;48.172;8.058;2023-07-29T00:28:04;17.80;99.90
13892;DHT22;7016;48.172;8.058;2023-07-29T00:30:51;17.70;99.90
13892;DHT22;7016;48.172;8.058;2023-07-29T00:33:37;17.70;99.90
13892;DHT22;7016;48.172;8.058;2023-07-29T00:36:23;17.70;99.90
13892;DHT22;7016;48.172;8.058;2023-07-29T00:39:09;17.70;99.90
13892;DHT22;7016;48.172;8.058;2023-07-29T00:41:55;17.70;99.90
13892;DHT22;7016;48.172;8.058;2023-07-29T00:44:42;17.60;99.90
13892;DHT22;7016;48.172;8.058;2023-07-29T00:47:28;17.60;99.90
13892;DHT22;7016;48.172;8.058;2023-07-29T00:50:16;17.60;99.90
13892;DHT22;7016;48.172;8.058;2023-07-29T00:53:02;17.50;99.90
13892;DHT22;7016;48.172;8.058;2023-07-29T00:55:48;17.60;99.90
13892;DHT22;7016;48.172;8.058;2023-07-29T00:58:35;17.50;99.90
13892;DHT22;7016;48.172;8.058;2023-07-29T01:01:21;17.50;99.90
13892;DHT22;7016;48.172;8.058;2023-07-29T01:04:07;17.50;99.90
13892;DHT22;7016;48.172;8.058;2023-07-29T01:07:14;17.60;99.90
13892;DHT22;7016;48.172;8.058;2023-07-29T01:10:03;17.60;99.90
13892;DHT22;7016;48.172;8.058;2023-07-29T01:13:06;17.50;99.90
13892;DHT22;7016;48.172;8.058;2023-07-29T01:16:02;17.50;99.90
13892;DHT22;7016;48.172;8.058;2023-07-29T01:18:50;17.50;99.90
13892;DHT22;7016;48.172;8.058;2023-07-29T01:21:38;17.60;99.90
13892;DHT22;7016;48.172;8.058;2023-07-29T01:24:25;17.60;99.90
13892;DHT22;7016;48.172;8.058;2023-07-29T01:27:11;17.60;99.90
13892;DHT22;7016;48.172;8.058;2023-07-29T01:29:58;17.50;99.90
13892;DHT22;7016;48.172;8.058;2023-07-29T01:33:08;17.60;99.90
13892;DHT22;7016;48.172;8.058;2023-07-29T01:36:07;17.50;99.90
13892;DHT22;7016;48.172;8.058;2023-07-29T01:38:55;17.40;99.90
13892;DHT22;7016;48.172;8.058;2023-07-29T01:41:43;17.40;99.90
13892;DHT22;7016;48.172;8.058;2023-07-29T01:44:29;17.40;99.90
13892;DHT22;7016;48.172;8.058;2023-07-29T01:47:16;17.40;99.90
13892;DHT22;7016;48.172;8.058;2023-07-29T01:50:03;17.30;99.90
13892;DHT22;7016;48.172;8.058;2023-07-29T01:52:49;17.20;99.90
13892;DHT22;7016;48.172;8.058;2023-07-29T01:55:35;17.20;99.90
13892;DHT22;7016;48.172;8.058;2023-07-29T01:58:22;17.30;99.90
13892;DHT22;7016;48.172;8.058;2023-07-29T02:01:08;17.20;99.90
13892;DHT22;7016;48.172;8.058;2023-07-29T02:03:54;17.30;99.90
13892;DHT22;7016;48.172;8.058;2023-07-29T02:06:41;17.30;99.90
13892;DHT22;7016;48.172;8.058;2023-07-29T02:09:27;17.30;99.90
13892;DHT22;7016;48.172;8.058;2023-07-29T02:12:13;17.40;99.90
13892;DHT22;7016;48.172;8.058;2023-07-29T02:14:59;17.40;99.90
13892;DHT22;7016;48.172;8.058;2023-07-29T02:17:46;17.30;99.90
13892;DHT22;7016;48.172;8.058;2023-07-29T02:20:32;17.40;99.90
13892;DHT22;7016;48.172;8.058;2023-07-29T02:23:18;17.40;99.90
13892;DHT22;7016;48.172;8.058;2023-07-29T02:26:04;17.40;99.90
13892;DHT22;7016;48.172;8.058;2023-07-29T02:28:50;17.30;99.90
13892;DHT22;7016;48.172;8.058;2023-07-29T02:31:36;17.30;99.90
13892;DHT22;7016;48.172;8.058;2023-07-29T02:34:23;17.30;99.90
13892;DHT22;7016;48.172;8.058;2023-07-29T02:37:09;17.40;99.90
13892;DHT22;7016;48.172;8.058;2023-07-29T02:39:55;17.30;99.90
13892;DHT22;7016;48.172;8.058;2023-07-29T02:42:42;17.40;99.90
13892;DHT22;7016;48.172;8.058;2023-07-29T02:45:28;17.40;99.90
13892;DHT22;7016;48.172;8.058;2023-07-29T02:48:15;17.40;99.90
13892;DHT22;7016;48.172;8.058;2023-07-29T02:51:01;17.40;99.90
13892;DHT22;7016;48.172;8.058;2023-07-29T02:53:47;17.40;99.90
13892;DHT22;7016;48.172;8.058;2023-07-29T02:56:33;17.40;99.90
13892;DHT22;7016;48.172;8.058;2023-07-29T02:59:19;17.40;99.90
13892;DHT22;7016;48.172;8.058;2023-07-29T03:02:05;17.40;99.90
13892;DHT22;7016;48.172;8.058;2023-07-29T03:04:52;17.40;99.90
13892;DHT22;7016;48.172;8.058;2023-07-29T03:07:38;17.40;99.90
13892;DHT22;7016;48.172;8.058;2023-07-29T03:10:24;17.40;99.90
13892;DHT22;7016;48.172;8.058;2023-07-29T03:13:11;17.50;99.90
13892;DHT22;7016;48.172;8.058;2023-07-29T03:18:52;17.40;99.90
13892;DHT22;7016;48.172;8.058;2023-07-29T03:21:38;17.40;99.90
13892;DHT22;7016;48.172;8.058;2023-07-29T03:24:24;17.40;99.90
13892;DHT22;7016;48.172;8.058;2023-07-29T03:27:11;17.40;99.90
13892;DHT22;7016;48.172;8.058;2023-07-29T03:29:57;17.40;99.90
13892;DHT22;7016;48.172;8.058;2023-07-29T03:32:43;17.40;99.90
13892;DHT22;7016;48.172;8.058;2023-07-29T03:35:32;17.40;99.90
13892;DHT22;7016;48.172;8.058;2023-07-29T03:38:19;17.50;99.90
13892;DHT22;7016;48.172;8.058;2023-07-29T03:41:06;17.40;99.90
13892;DHT22;7016;48.172;8.058;2023-07-29T03:43:52;17.40;99.90
13892;DHT22;7016;48.172;8.058;2023-07-29T03:46:39;17.40;99.90
13892;DHT22;7016;48.172;8.058;2023-07-29T03:49:25;17.30;99.90
13892;DHT22;7016;48.172;8.058;2023-07-29T03:52:11;17.40;99.90
13892;DHT22;7016;48.172;8.058;2023-07-29T03:54:57;17.40;99.90
13892;DHT22;7016;48.172;8.058;2023-07-29T03:57:43;17.30;99.90
13892;DHT22;7016;48.172;8.058;2023-07-29T04:00:30;17.30;99.90
13892;DHT22;7016;48.172;8.058;2023-07-29T04:03:16;17.30;99.90
13892;DHT22;7016;48.172;8.058;2023-07-29T04:06:02;17.30;99.90
13892;DHT22;7016;48.172;8.058;2023-07-29T04:08:48;17.40;99.90
13892;DHT22;7016;48.172;8.058;2023-07-29T04:11:35;17.30;99.90
13892;DHT22;7016;48.172;8.058;2023-07-29T04:14:21;17.30;99.90
13892;DHT22;7016;48.172;8.058;2023-07-29T04:17:07;17.30;99.90
13892;DHT22;7016;48.172;8.058;2023-07-29T04:19:53;17.30;99.90
13892;DHT22;7016;48.172;8.058;2023-07-29T04:22:39;17.40;99.90
13892;DHT22;7016;48.172;8.058;2023-07-29T04:25:26;17.40;99.90
13892;DHT22;7016;48.172;8.058;2023-07-29T04:28:12;17.30;99.90
13892;DHT22;7016;48.172;8.058;2023-07-29T04:30:58;17.30;99.90
13892;DHT22;7016;48.172;8.058;2023-07-29T04:33:45;17.40;99.90
13892;DHT22;7016;48.172;8.058;2023-07-29T04:36:31;17.40;99.90
13892;DHT22;7016;48.172;8.058;2023-07-29T04:39:17;17.30;99.90
13892;DHT22;7016;48.172;8.058;2023-07-29T04:42:04;17.30;99.90
13892;DHT22;7016;48.172;8.058;2023-07-29T04:44:50;17.30;99.90
13892;DHT22;7016;48.172;8.058;2023-07-29T04:47:36;17.30;99.90
13892;DHT22;7016;48.172;8.058;2023-07-29T04:50:23;17.30;99.90
13892;DHT22;7016;48.172;8.058;2023-07-29T04:53:09;17.30;99.90
13892;DHT22;7016;48.172;8.058;2023-07-29T04:55:55;17.30;99.90
13892;DHT22;7016;48.172;8.058;2023-07-29T04:58:41;17.30;99.90
13892;DHT22;7016;48.172;8.058;2023-07-29T05:01:27;17.40;99.90
13892;DHT22;7016;48.172;8.058;2023-07-29T05:04:13;17.40;99.90
13892;DHT22;7016;48.172;8.058;2023-07-29T05:07:00;17.50;99.90
13892;DHT22;7016;48.172;8.058;2023-07-29T05:09:47;17.50;99.90
13892;DHT22;7016;48.172;8.058;2023-07-29T05:12:33;17.50;99.90
13892;DHT22;7016;48.172;8.058;2023-07-29T05:15:20;17.60;99.90
13892;DHT22;7016;48.172;8.058;2023-07-29T05:18:06;17.60;99.90
13892;DHT22;7016;48.172;8.058;2023-07-29T05:20:52;17.60;99.90
13892;DHT22;7016;48.172;8.058;2023-07-29T05:23:38;17.60;99.90
13892;DHT22;7016;48.172;8.058;2023-07-29T05:26:24;17.70;99.90
13892;DHT22;7016;48.172;8.058;2023-07-29T05:29:11;17.70;99.90
13892;DHT22;7016;48.172;8.058;2023-07-29T05:31:57;17.70;99.90
13892;DHT22;7016;48.172;8.058;2023-07-29T05:34:43;17.70;99.90
13892;DHT22;7016;48.172;8.058;2023-07-29T05:37:29;17.60;99.90
13892;DHT22;7016;48.172;8.058;2023-07-29T05:40:16;17.70;99.90
13892;DHT22;7016;48.172;8.058;2023-07-29T05:43:02;17.60;99.90
13892;DHT22;7016;48.172;8.058;2023-07-29T05:45:49;17.60;99.90
13892;DHT22;7016;48.172;8.058;2023-07-29T05:48:35;17.50;99.90
13892;DHT22;7016;48.172;8.058;2023-07-29T05:51:21;17.40;99.90
13892;DHT22;7016;48.172;8.058;2023-07-29T05:54:07;17.40;99.90
13892;DHT22;7016;48.172;8.058;2023-07-29T05:56:53;17.40;99.90
13892;DHT22;7016;48.172;8.058;2023-07-29T05:59:39;17.60;99.90
13892;DHT22;7016;48.172;8.058;2023-07-29T06:02:26;17.70;99.90
13892;DHT22;7016;48.172;8.058;2023-07-29T06:05:12;17.70;99.90
13892;DHT22;7016;48.172;8.058;2023-07-29T06:07:58;17.70;99.90
13892;DHT22;7016;48.172;8.058;2023-07-29T06:10:44;17.70;99.90
13892;DHT22;7016;48.172;8.058;2023-07-29T06:13:31;17.70;99.90
13892;DHT22;7016;48.172;8.058;2023-07-29T06:16:17;17.80;99.90
13892;DHT22;7016;48.172;8.058;2023-07-29T06:19:03;17.90;99.90
13892;DHT22;7016;48.172;8.058;2023-07-29T06:21:49;18.00;99.90
13892;DHT22;7016;48.172;8.058;2023-07-29T06:24:35;18.10;99.90
13892;DHT22;7016;48.172;8.058;2023-07-29T06:27:22;18.10;99.90
13892;DHT22;7016;48.172;8.058;2023-07-29T06:30:08;18.20;99.90
13892;DHT22;7016;48.172;8.058;2023-07-29T06:32:55;18.20;99.90
13892;DHT22;7016;48.172;8.058;2023-07-29T06:35:41;18.20;99.90
13892;DHT22;7016;48.172;8.058;2023-07-29T06:38:27;18.30;99.90
13892;DHT22;7016;48.172;8.058;2023-07-29T06:41:14;18.20;99.90
13892;DHT22;7016;48.172;8.058;2023-07-29T06:44:00;18.20;99.90
13892;DHT22;7016;48.172;8.058;2023-07-29T06:46:46;18.20;99.90
13892;DHT22;7016;48.172;8.058;2023-07-29T06:49:32;18.20;99.90
13892;DHT22;7016;48.172;8.058;2023-07-29T06:52:18;18.20;99.90
13892;DHT22;7016;48.172;8.058;2023-07-29T06:55:05;18.10;99.90
13892;DHT22;7016;48.172;8.058;2023-07-29T06:57:51;18.20;99.90
13892;DHT22;7016;48.172;8.058;2023-07-29T07:00:37;18.40;99.90
13892;DHT22;7016;48.172;8.058;2023-07-29T07:03:24;18.40;99.90
13892;DHT22;7016;48.172;8.058;2023-07-29T07:06:10;18.50;99.90
13892;DHT22;7016;48.172;8.058;2023-07-29T07:08:56;18.60;99.90
13892;DHT22;7016;48.172;8.058;2023-07-29T07:11:42;18.70;99.90
13892;DHT22;7016;48.172;8.058;2023-07-29T07:14:28;18.70;99.90
13892;DHT22;7016;48.172;8.058;2023-07-29T07:17:14;18.70;99.90
13892;DHT22;7016;48.172;8.058;2023-07-29T07:20:01;18.90;99.90
13892;DHT22;7016;48.172;8.058;2023-07-29T07:22:47;19.00;99.90
13892;DHT22;7016;48.172;8.058;2023-07-29T07:25:33;19.00;99.90
13892;DHT22;7016;48.172;8.058;2023-07-29T07:28:19;19.00;99.90
13892;DHT22;7016;48.172;8.058;2023-07-29T07:31:05;19.10;99.90
13892;DHT22;7016;48.172;8.058;2023-07-29T07:33:52;19.10;99.90
13892;DHT22;7016;48.172;8.058;2023-07-29T07:36:38;19.30;99.90
13892;DHT22;7016;48.172;8.058;2023-07-29T07:39:24;19.40;99.90
13892;DHT22;7016;48.172;8.058;2023-07-29T07:42:10;19.50;99.90
13892;DHT22;7016;48.172;8.058;2023-07-29T07:44:56;19.50;99.90
13892;DHT22;7016;48.172;8.058;2023-07-29T07:47:43;19.50;99.90
13892;DHT22;7016;48.172;8.058;2023-07-29T07:50:30;19.70;99.90
13892;DHT22;7016;48.172;8.058;2023-07-29T07:53:16;19.70;99.90
13892;DHT22;7016;48.172;8.058;2023-07-29T07:56:03;19.80;99.90
13892;DHT22;7016;48.172;8.058;2023-07-29T07:58:49;19.80;99.90
13892;DHT22;7016;48.172;8.058;2023-07-29T08:01:36;20.00;99.90
13892;DHT22;7016;48.172;8.058;2023-07-29T08:04:22;20.10;99.90
13892;DHT22;7016;48.172;8.058;2023-07-29T08:07:09;20.20;99.90
13892;DHT22;7016;48.172;8.058;2023-07-29T08:09:55;20.20;99.90
13892;DHT22;7016;48.172;8.058;2023-07-29T08:12:41;20.20;99.90
13892;DHT22;7016;48.172;8.058;2023-07-29T08:15:27;20.10;99.90
13892;DHT22;7016;48.172;8.058;2023-07-29T08:18:14;20.20;99.90
13892;DHT22;7016;48.172;8.058;2023-07-29T08:21:00;20.20;99.90
13892;DHT22;7016;48.172;8.058;2023-07-29T08:23:50;20.20;99.90
13892;DHT22;7016;48.172;8.058;2023-07-29T08:26:36;20.30;99.90
13892;DHT22;7016;48.172;8.058;2023-07-29T08:29:22;20.30;99.90
13892;DHT22;7016;48.172;8.058;2023-07-29T08:32:09;20.60;99.90
13892;DHT22;7016;48.172;8.058;2023-07-29T08:34:55;20.40;99.90
13892;DHT22;7016;48.172;8.058;2023-07-29T08:37:44;20.40;99.90
13892;DHT22;7016;48.172;8.058;2023-07-29T08:40:32;20.40;99.90
13892;DHT22;7016;48.172;8.058;2023-07-29T08:43:24;20.40;99.90
13892;DHT22;7016;48.172;8.058;2023-07-29T08:46:12;20.40;99.90
13892;DHT22;7016;48.172;8.058;2023-07-29T08:48:59;20.40;99.90
13892;DHT22;7016;48.172;8.058;2023-07-29T08:51:47;20.50;99.90
13892;DHT22;7016;48.172;8.058;2023-07-29T08:54:35;20.50;99.90
13892;DHT22;7016;48.172;8.058;2023-07-29T08:57:22;20.60;99.90
13892;DHT22;7016;48.172;8.058;2023-07-29T08:59:48;20.70;99.90
13892;DHT22;7016;48.172;8.058;2023-07-29T09:02:14;20.80;99.90
13892;DHT22;7016;48.172;8.058;2023-07-29T09:04:40;20.90;99.90
13892;DHT22;7016;48.172;8.058;2023-07-29T09:07:05;20.80;99.90
13892;DHT22;7016;48.172;8.058;2023-07-29T09:09:32;20.90;99.90
13892;DHT22;7016;48.172;8.058;2023-07-29T09:11:58;20.90;99.90
13892;DHT22;7016;48.172;8.058;2023-07-29T09:14:24;21.00;99.90
13892;DHT22;7016;48.172;8.058;2023-07-29T09:16:50;21.10;99.90
13892;DHT22;7016;48.172;8.058;2023-07-29T09:19:16;21.20;99.90
13892;DHT22;7016;48.172;8.058;2023-07-29T09:21:42;21.30;99.90
13892;DHT22;7016;48.172;8.058;2023-07-29T09:24:08;21.30;99.90
13892;DHT22;7016;48.172;8.058;2023-07-29T09:26:34;21.30;99.90
13892;DHT22;7016;48.172;8.058;2023-07-29T09:29:00;21.30;99.90
13892;DHT22;7016;48.172;8.058;2023-07-29T09:31:27;21.30;99.90
13892;DHT22;7016;48.172;8.058;2023-07-29T09:33:56;21.30;99.90
13892;DHT22;7016;48.172;8.058;2023-07-29T09:36:23;21.20;99.90
13892;DHT22;7016;48.172;8.058;2023-07-29T09:38:52;21.20;99.90
13892;DHT22;7016;48.172;8.058;2023-07-29T09:41:19;21.20;99.90
13892;DHT22;7016;48.172;8.058;2023-07-29T09:43:47;21.30;99.90
13892;DHT22;7016;48.172;8.058;2023-07-29T09:46:12;21.40;99.90
13892;DHT22;7016;48.172;8.058;2023-07-29T09:48:38;21.40;99.90
13892;DHT22;7016;48.172;8.058;2023-07-29T09:51:11;21.60;99.90
13892;DHT22;7016;48.172;8.058;2023-07-29T09:53:47;21.60;99.90
13892;DHT22;7016;48.172;8.058;2023-07-29T09:56:13;21.70;99.90
13892;DHT22;7016;48.172;8.058;2023-07-29T09:58:39;21.80;99.90
13892;DHT22;7016;48.172;8.058;2023-07-29T10:01:06;21.80;99.90
13892;DHT22;7016;48.172;8.058;2023-07-29T10:03:33;21.80;99.90
13892;DHT22;7016;48.172;8.058;2023-07-29T10:06:04;21.90;99.90
13892;DHT22;7016;48.172;8.058;2023-07-29T10:08:30;22.00;99.90
13892;DHT22;7016;48.172;8.058;2023-07-29T10:11:06;22.00;99.90
13892;DHT22;7016;48.172;8.058;2023-07-29T10:13:33;22.10;99.90
13892;DHT22;7016;48.172;8.058;2023-07-29T10:15:59;22.00;99.90
13892;DHT22;7016;48.172;8.058;2023-07-29T10:18:29;22.00;99.90
13892;DHT22;7016;48.172;8.058;2023-07-29T10:20:57;22.00;99.90
13892;DHT22;7016;48.172;8.058;2023-07-29T10:23:25;22.00;99.90
13892;DHT22;7016;48.172;8.058;2023-07-29T10:26:10;22.10;99.90
13892;DHT22;7016;48.172;8.058;2023-07-29T10:28:38;22.30;99.90
13892;DHT22;7016;48.172;8.058;2023-07-29T10:31:04;22.30;99.90
13892;DHT22;7016;48.172;8.058;2023-07-29T10:33:32;22.40;99.90
13892;DHT22;7016;48.172;8.058;2023-07-29T10:35:59;22.40;99.90
13892;DHT22;7016;48.172;8.058;2023-07-29T10:38:25;22.60;99.90
13892;DHT22;7016;48.172;8.058;2023-07-29T10:41:10;22.90;99.90
13892;DHT22;7016;48.172;8.058;2023-07-29T10:43:56;22.80;99.90
13892;DHT22;7016;48.172;8.058;2023-07-29T10:46:42;22.80;99.90
13892;DHT22;7016;48.172;8.058;2023-07-29T10:49:29;22.80;99.90
13892;DHT22;7016;48.172;8.058;2023-07-29T10:51:56;22.80;99.90
13892;DHT22;7016;48.172;8.058;2023-07-29T10:54:22;22.90;99.90
13892;DHT22;7016;48.172;8.058;2023-07-29T10:56:49;23.00;99.90
13892;DHT22;7016;48.172;8.058;2023-07-29T11:01:56;23.00;99.90
13892;DHT22;7016;48.172;8.058;2023-07-29T11:20:11;23.50;99.90
13892;DHT22;7016;48.172;8.058;2023-07-29T11:22:38;23.50;99.90
13892;DHT22;7016;48.172;8.058;2023-07-29T11:25:05;23.70;99.90
13892;DHT22;7016;48.172;8.058;2023-07-29T11:27:32;23.60;99.90
13892;DHT22;7016;48.172;8.058;2023-07-29T11:29:59;23.70;99.90
13892;DHT22;7016;48.172;8.058;2023-07-29T11:32:25;23.60;99.90
13892;DHT22;7016;48.172;8.058;2023-07-29T11:34:51;23.60;99.90
13892;DHT22;7016;48.172;8.058;2023-07-29T11:37:17;23.80;99.90
13892;DHT22;7016;48.172;8.058;2023-07-29T11:39:46;24.00;99.90
13892;DHT22;7016;48.172;8.058;2023-07-29T11:42:12;24.10;99.90
13892;DHT22;7016;48.172;8.058;2023-07-29T11:44:38;24.10;99.90
13892;DHT22;7016;48.172;8.058;2023-07-29T11:47:08;24.00;99.90
13892;DHT22;7016;48.172;8.058;2023-07-29T11:49:35;24.00;99.90
13892;DHT22;7016;48.172;8.058;2023-07-29T11:52:02;23.90;99.90
13892;DHT22;7016;48.172;8.058;2023-07-29T11:54:28;23.90;99.90
13892;DHT22;7016;48.172;8.058;2023-07-29T11:56:55;24.10;99.90
13892;DHT22;7016;48.172;8.058;2023-07-29T11:59:21;24.00;99.90
13892;DHT22;7016;48.172;8.058;2023-07-29T12:01:46;24.00;99.90
13892;DHT22;7016;48.172;8.058;2023-07-29T12:04:13;24.00;99.90
13892;DHT22;7016;48.172;8.058;2023-07-29T12:06:39;24.00;99.90
13892;DHT22;7016;48.172;8.058;2023-07-29T12:09:06;24.10;99.90
13892;DHT22;7016;48.172;8.058;2023-07-29T12:11:33;24.10;99.90
13892;DHT22;7016;48.172;8.058;2023-07-29T12:14:00;24.10;99.90
13892;DHT22;7016;48.172;8.058;2023-07-29T12:16:25;24.20;99.90
13892;DHT22;7016;48.172;8.058;2023-07-29T12:18:51;24.10;99.90
13892;DHT22;7016;48.172;8.058;2023-07-29T12:21:19;24.10;99.90
13892;DHT22;7016;48.172;8.058;2023-07-29T12:23:45;24.10;99.90
13892;DHT22;7016;48.172;8.058;2023-07-29T12:26:10;24.10;99.90
13892;DHT22;7016;48.172;8.058;2023-07-29T12:28:36;24.20;99.90
13892;DHT22;7016;48.172;8.058;2023-07-29T12:31:06;24.20;99.90
13892;DHT22;7016;48.172;8.058;2023-07-29T12:33:34;24.30;99.90
13892;DHT22;7016;48.172;8.058;2023-07-29T12:36:00;24.30;99.90
13892;DHT22;7016;48.172;8.058;2023-07-29T12:38:26;24.30;99.90
13892;DHT22;7016;48.172;8.058;2023-07-29T12:40:52;24.10;99.90
13892;DHT22;7016;48.172;8.058;2023-07-29T12:43:18;24.10;99.90
13892;DHT22;7016;48.172;8.058;2023-07-29T12:45:44;24.10;99.90
13892;DHT22;7016;48.172;8.058;2023-07-29T12:48:10;24.00;99.90
13892;DHT22;7016;48.172;8.058;2023-07-29T12:50:36;24.00;99.90
13892;DHT22;7016;48.172;8.058;2023-07-29T12:53:02;24.00;99.90
13892;DHT22;7016;48.172;8.058;2023-07-29T12:55:28;24.10;99.90
13892;DHT22;7016;48.172;8.058;2023-07-29T12:57:54;24.10;99.90
13892;DHT22;7016;48.172;8.058;2023-07-29T13:00:19;24.10;99.90
13892;DHT22;7016;48.172;8.058;2023-07-29T13:02:45;24.00;99.90
13892;DHT22;7016;48.172;8.058;2023-07-29T13:05:11;24.00;99.90
13892;DHT22;7016;48.172;8.058;2023-07-29T13:07:39;24.10;99.90
13892;DHT22;7016;48.172;8.058;2023-07-29T13:10:05;24.10;99.90
13892;DHT22;7016;48.172;8.058;2023-07-29T13:12:31;24.10;99.90
13892;DHT22;7016;48.172;8.058;2023-07-29T13:14:57;24.10;99.90
13892;DHT22;7016;48.172;8.058;2023-07-29T13:17:22;24.10;99.90
13892;DHT22;7016;48.172;8.058;2023-07-29T13:19:49;24.10;99.90
13892;DHT22;7016;48.172;8.058;2023-07-29T13:22:14;24.30;99.90
13892;DHT22;7016;48.172;8.058;2023-07-29T13:24:40;24.40;99.90
13892;DHT22;7016;48.172;8.058;2023-07-29T13:27:06;24.50;99.90
13892;DHT22;7016;48.172;8.058;2023-07-29T13:29:32;24.40;99.90
13892;DHT22;7016;48.172;8.058;2023-07-29T13:31:57;24.30;99.90
13892;DHT22;7016;48.172;8.058;2023-07-29T13:34:23;24.30;99.90
13892;DHT22;7016;48.172;8.058;2023-07-29T13:36:49;24.30;99.90
13892;DHT22;7016;48.172;8.058;2023-07-29T13:39:15;24.20;99.90
13892;DHT22;7016;48.172;8.058;2023-07-29T13:41:41;24.20;99.90
13892;DHT22;7016;48.172;8.058;2023-07-29T13:44:06;24.20;99.90
13892;DHT22;7016;48.172;8.058;2023-07-29T13:46:32;24.20;99.90
13892;DHT22;7016;48.172;8.058;2023-07-29T13:48:58;24.30;99.90
13892;DHT22;7016;48.172;8.058;2023-07-29T13:51:24;24.40;99.90
13892;DHT22;7016;48.172;8.058;2023-07-29T13:53:49;24.40;99.90
13892;DHT22;7016;48.172;8.058;2023-07-29T13:56:15;24.40;99.90
13892;DHT22;7016;48.172;8.058;2023-07-29T13:58:41;24.40;99.90
13892;DHT22;7016;48.172;8.058;2023-07-29T14:01:06;24.40;99.90
13892;DHT22;7016;48.172;8.058;2023-07-29T14:03:32;24.40;99.90
13892;DHT22;7016;48.172;8.058;2023-07-29T14:05:58;24.40;99.90
13892;DHT22;7016;48.172;8.058;2023-07-29T14:08:23;24.30;99.90
13892;DHT22;7016;48.172;8.058;2023-07-29T14:10:49;24.20;99.90
13892;DHT22;7016;48.172;8.058;2023-07-29T14:13:15;24.20;99.90
13892;DHT22;7016;48.172;8.058;2023-07-29T14:15:41;24.20;99.90
13892;DHT22;7016;48.172;8.058;2023-07-29T14:18:06;24.20;99.90
13892;DHT22;7016;48.172;8.058;2023-07-29T14:20:33;24.30;99.90
13892;DHT22;7016;48.172;8.058;2023-07-29T14:22:58;24.20;99.90
13892;DHT22;7016;48.172;8.058;2023-07-29T14:25:24;24.30;99.90
13892;DHT22;7016;48.172;8.058;2023-07-29T14:27:50;24.40;99.90
13892;DHT22;7016;48.172;8.058;2023-07-29T14:30:16;24.30;99.90
13892;DHT22;7016;48.172;8.058;2023-07-29T14:32:42;24.30;99.90
13892;DHT22;7016;48.172;8.058;2023-07-29T14:35:07;24.30;99.90
13892;DHT22;7016;48.172;8.058;2023-07-29T14:37:34;24.30;99.90
13892;DHT22;7016;48.172;8.058;2023-07-29T14:40:00;24.20;99.90
13892;DHT22;7016;48.172;8.058;2023-07-29T14:42:27;24.20;99.90
13892;DHT22;7016;48.172;8.058;2023-07-29T14:44:53;24.20;99.90
13892;DHT22;7016;48.172;8.058;2023-07-29T14:47:18;24.20;99.90
13892;DHT22;7016;48.172;8.058;2023-07-29T14:49:45;24.10;99.90
13892;DHT22;7016;48.172;8.058;2023-07-29T14:52:11;24.10;99.90
13892;DHT22;7016;48.172;8.058;2023-07-29T14:54:37;24.20;99.90
13892;DHT22;7016;48.172;8.058;2023-07-29T14:57:06;24.10;99.90
13892;DHT22;7016;48.172;8.058;2023-07-29T14:59:31;24.10;99.90
13892;DHT22;7016;48.172;8.058;2023-07-29T15:01:57;24.20;99.90
13892;DHT22;7016;48.172;8.058;2023-07-29T15:04:23;24.10;99.90
13892;DHT22;7016;48.172;8.058;2023-07-29T15:06:48;24.20;99.90
13892;DHT22;7016;48.172;8.058;2023-07-29T15:09:14;24.10;99.90
13892;DHT22;7016;48.172;8.058;2023-07-29T15:11:40;24.00;99.90
13892;DHT22;7016;48.172;8.058;2023-07-29T15:14:06;24.00;99.90
13892;DHT22;7016;48.172;8.058;2023-07-29T15:16:32;23.90;99.90
13892;DHT22;7016;48.172;8.058;2023-07-29T15:18:59;23.80;99.90
13892;DHT22;7016;48.172;8.058;2023-07-29T15:21:25;23.60;99.90
13892;DHT22;7016;48.172;8.058;2023-07-29T15:23:51;23.60;99.90
13892;DHT22;7016;48.172;8.058;2023-07-29T15:26:16;23.50;99.90
13892;DHT22;7016;48.172;8.058;2023-07-29T15:28:42;23.20;99.90
13892;DHT22;7016;48.172;8.058;2023-07-29T15:31:07;22.60;99.90
13892;DHT22;7016;48.172;8.058;2023-07-29T15:33:33;22.50;99.90
13892;DHT22;7016;48.172;8.058;2023-07-29T15:36:00;22.40;99.90
13892;DHT22;7016;48.172;8.058;2023-07-29T15:38:26;22.40;99.90
13892;DHT22;7016;48.172;8.058;2023-07-29T15:40:51;22.40;99.90
13892;DHT22;7016;48.172;8.058;2023-07-29T15:43:17;22.40;99.90
13892;DHT22;7016;48.172;8.058;2023-07-29T15:45:44;22.30;99.90
13892;DHT22;7016;48.172;8.058;2023-07-29T15:48:10;22.20;99.90
13892;DHT22;7016;48.172;8.058;2023-07-29T15:50:36;22.20;99.90
13892;DHT22;7016;48.172;8.058;2023-07-29T15:53:02;22.10;99.90
13892;DHT22;7016;48.172;8.058;2023-07-29T15:55:29;21.90;99.90
13892;DHT22;7016;48.172;8.058;2023-07-29T15:57:54;22.10;99.90
13892;DHT22;7016;48.172;8.058;2023-07-29T16:00:20;22.30;99.90
13892;DHT22;7016;48.172;8.058;2023-07-29T16:02:48;22.00;99.90
13892;DHT22;7016;48.172;8.058;2023-07-29T16:05:13;22.10;99.90
13892;DHT22;7016;48.172;8.058;2023-07-29T16:07:39;22.20;99.90
13892;DHT22;7016;48.172;8.058;2023-07-29T16:10:06;22.20;99.90
13892;DHT22;7016;48.172;8.058;2023-07-29T16:12:32;22.30;99.90
13892;DHT22;7016;48.172;8.058;2023-07-29T16:15:02;22.30;99.90
13892;DHT22;7016;48.172;8.058;2023-07-29T16:17:28;22.30;99.90
13892;DHT22;7016;48.172;8.058;2023-07-29T16:20:00;22.10;99.90
13892;DHT22;7016;48.172;8.058;2023-07-29T16:22:26;22.10;99.90
13892;DHT22;7016;48.172;8.058;2023-07-29T16:24:52;22.10;99.90
13892;DHT22;7016;48.172;8.058;2023-07-29T16:27:19;22.10;99.90
13892;DHT22;7016;48.172;8.058;2023-07-29T16:29:45;22.20;99.90
13892;DHT22;7016;48.172;8.058;2023-07-29T16:32:10;22.00;99.90
13892;DHT22;7016;48.172;8.058;2023-07-29T16:34:37;22.10;99.90
13892;DHT22;7016;48.172;8.058;2023-07-29T16:37:04;22.20;99.90
13892;DHT22;7016;48.172;8.058;2023-07-29T16:39:29;22.20;99.90
13892;DHT22;7016;48.172;8.058;2023-07-29T16:41:55;22.10;99.90
13892;DHT22;7016;48.172;8.058;2023-07-29T16:44:21;22.10;99.90
13892;DHT22;7016;48.172;8.058;2023-07-29T16:46:46;22.10;99.90
13892;DHT22;7016;48.172;8.058;2023-07-29T16:49:12;22.10;99.90
13892;DHT22;7016;48.172;8.058;2023-07-29T16:51:38;22.10;99.90
13892;DHT22;7016;48.172;8.058;2023-07-29T16:54:04;22.10;99.90
13892;DHT22;7016;48.172;8.058;2023-07-29T16:56:29;22.10;99.90
13892;DHT22;7016;48.172;8.058;2023-07-29T16:58:55;22.20;99.90
13892;DHT22;7016;48.172;8.058;2023-07-29T17:01:21;22.20;99.90
13892;DHT22;7016;48.172;8.058;2023-07-29T17:03:46;22.00;99.90
13892;DHT22;7016;48.172;8.058;2023-07-29T17:06:12;22.10;99.90